Weather at KLATCC Heliport

Public forecast

Using degrees Celsius for public forecast. Weather courtesy of forecast.io.

Closest aviation weather report (METAR) to KLATCC Heliport

Closest report is Kuala Lumpur International Airport, 1.2 nm (2.3 km) SSE.

2024/05/19 20:00 (retrieved 27 minutes ago)

WMKK 192000Z VRB02KT 9000 FEW030 28/26 Q1005 NOSIG

Closest aviation forecast (TAF) to KLATCC Heliport

Closest forecast is Kuala Lumpur International Airport, 1.2 nm (2.3 km) SSE.

2024/05/19 18:09 (retrieved 2 hours ago)

TAF WMKK 191700Z 1918/2100 14005KT 9000 FEW017CB TEMPO 1923/2004 23008G18KT 4000 TSRA FEW010 FEW017CB SCT020 BECMG 2007/2008 VRB03KT 8000 FEW010 FEW017CB